sensor_id;sensor_type;location;lat;lon;timestamp;P1;durP1;ratioP1;P2;durP2;ratioP2
65368;SDS011;51970;53.484;49.488;2023-06-10T00:02:01;10.10;;;3.97;;
65368;SDS011;51970;53.484;49.488;2023-06-10T00:04:27;7.78;;;3.55;;
65368;SDS011;51970;53.484;49.488;2023-06-10T00:06:54;7.93;;;3.80;;
65368;SDS011;51970;53.484;49.488;2023-06-10T00:09:21;11.93;;;3.95;;
65368;SDS011;51970;53.484;49.488;2023-06-10T00:11:48;8.48;;;3.45;;
65368;SDS011;51970;53.484;49.488;2023-06-10T00:14:14;8.38;;;4.10;;
65368;SDS011;51970;53.484;49.488;2023-06-10T00:16:41;9.02;;;3.17;;
65368;SDS011;51970;53.484;49.488;2023-06-10T00:19:10;7.78;;;3.97;;
65368;SDS011;51970;53.484;49.488;2023-06-10T00:21:39;8.02;;;3.25;;
65368;SDS011;51970;53.484;49.488;2023-06-10T00:24:07;14.02;;;4.00;;
65368;SDS011;51970;53.484;49.488;2023-06-10T00:26:40;15.93;;;3.85;;
65368;SDS011;51970;53.484;49.488;2023-06-10T00:29:07;9.25;;;3.42;;
65368;SDS011;51970;53.484;49.488;2023-06-10T00:31:37;11.00;;;3.33;;
65368;SDS011;51970;53.484;49.488;2023-06-10T00:34:05;8.45;;;4.03;;
65368;SDS011;51970;53.484;49.488;2023-06-10T00:36:32;12.20;;;3.88;;
65368;SDS011;51970;53.484;49.488;2023-06-10T00:38:59;16.48;;;4.05;;
65368;SDS011;51970;53.484;49.488;2023-06-10T00:41:25;9.75;;;4.28;;
65368;SDS011;51970;53.484;49.488;2023-06-10T00:43:54;13.18;;;4.35;;
65368;SDS011;51970;53.484;49.488;2023-06-10T00:46:23;11.57;;;4.18;;
65368;SDS011;51970;53.484;49.488;2023-06-10T00:49:00;10.82;;;3.33;;
65368;SDS011;51970;53.484;49.488;2023-06-10T00:51:26;8.63;;;4.22;;
65368;SDS011;51970;53.484;49.488;2023-06-10T00:53:52;11.15;;;4.05;;
65368;SDS011;51970;53.484;49.488;2023-06-10T00:56:20;11.55;;;4.40;;
65368;SDS011;51970;53.484;49.488;2023-06-10T00:58:47;10.13;;;4.30;;
65368;SDS011;51970;53.484;49.488;2023-06-10T01:01:13;9.30;;;4.32;;
65368;SDS011;51970;53.484;49.488;2023-06-10T01:03:40;8.38;;;4.20;;
65368;SDS011;51970;53.484;49.488;2023-06-10T01:06:31;9.35;;;3.72;;
65368;SDS011;51970;53.484;49.488;2023-06-10T01:09:32;8.35;;;4.15;;
65368;SDS011;51970;53.484;49.488;2023-06-10T01:14:48;7.97;;;3.15;;
65368;SDS011;51970;53.484;49.488;2023-06-10T01:17:16;14.88;;;3.90;;
65368;SDS011;51970;53.484;49.488;2023-06-10T01:19:43;10.52;;;3.53;;
65368;SDS011;51970;53.484;49.488;2023-06-10T01:22:11;9.27;;;3.92;;
65368;SDS011;51970;53.484;49.488;2023-06-10T01:24:48;14.25;;;3.53;;
65368;SDS011;51970;53.484;49.488;2023-06-10T01:27:29;13.07;;;3.55;;
65368;SDS011;51970;53.484;49.488;2023-06-10T01:29:59;12.85;;;3.83;;
65368;SDS011;51970;53.484;49.488;2023-06-10T01:32:48;11.68;;;3.65;;
65368;SDS011;51970;53.484;49.488;2023-06-10T01:35:17;12.57;;;3.80;;
65368;SDS011;51970;53.484;49.488;2023-06-10T01:37:50;10.48;;;3.90;;
65368;SDS011;51970;53.484;49.488;2023-06-10T01:40:20;8.05;;;3.33;;
65368;SDS011;51970;53.484;49.488;2023-06-10T01:42:46;10.82;;;4.53;;
65368;SDS011;51970;53.484;49.488;2023-06-10T01:45:12;11.00;;;5.03;;
65368;SDS011;51970;53.484;49.488;2023-06-10T01:47:39;15.57;;;3.67;;
65368;SDS011;51970;53.484;49.488;2023-06-10T01:50:06;9.38;;;3.33;;
65368;SDS011;51970;53.484;49.488;2023-06-10T01:52:32;13.02;;;3.65;;
65368;SDS011;51970;53.484;49.488;2023-06-10T01:54:58;11.80;;;4.38;;
65368;SDS011;51970;53.484;49.488;2023-06-10T01:57:24;13.70;;;4.07;;
65368;SDS011;51970;53.484;49.488;2023-06-10T01:59:50;11.90;;;3.22;;
65368;SDS011;51970;53.484;49.488;2023-06-10T02:02:17;12.40;;;4.47;;
65368;SDS011;51970;53.484;49.488;2023-06-10T02:04:43;8.35;;;3.72;;
65368;SDS011;51970;53.484;49.488;2023-06-10T02:07:10;13.52;;;3.78;;
65368;SDS011;51970;53.484;49.488;2023-06-10T02:09:38;7.53;;;3.80;;
65368;SDS011;51970;53.484;49.488;2023-06-10T02:12:04;17.40;;;4.55;;
65368;SDS011;51970;53.484;49.488;2023-06-10T02:14:42;8.88;;;4.35;;
65368;SDS011;51970;53.484;49.488;2023-06-10T02:17:08;9.70;;;3.55;;
65368;SDS011;51970;53.484;49.488;2023-06-10T02:19:44;9.70;;;3.92;;
65368;SDS011;51970;53.484;49.488;2023-06-10T02:22:21;9.32;;;2.85;;
65368;SDS011;51970;53.484;49.488;2023-06-10T02:24:49;10.52;;;3.65;;
65368;SDS011;51970;53.484;49.488;2023-06-10T02:27:15;15.68;;;3.92;;
65368;SDS011;51970;53.484;49.488;2023-06-10T02:29:42;18.60;;;3.85;;
65368;SDS011;51970;53.484;49.488;2023-06-10T02:32:09;9.75;;;3.88;;
65368;SDS011;51970;53.484;49.488;2023-06-10T02:34:36;10.02;;;3.78;;
65368;SDS011;51970;53.484;49.488;2023-06-10T02:37:02;11.18;;;3.28;;
65368;SDS011;51970;53.484;49.488;2023-06-10T02:39:29;15.25;;;3.63;;
65368;SDS011;51970;53.484;49.488;2023-06-10T02:42:10;7.30;;;2.95;;
65368;SDS011;51970;53.484;49.488;2023-06-10T02:44:47;11.15;;;4.40;;
65368;SDS011;51970;53.484;49.488;2023-06-10T02:47:13;14.98;;;3.72;;
65368;SDS011;51970;53.484;49.488;2023-06-10T02:49:49;9.95;;;3.20;;
65368;SDS011;51970;53.484;49.488;2023-06-10T02:52:16;11.60;;;4.43;;
65368;SDS011;51970;53.484;49.488;2023-06-10T02:54:42;10.73;;;3.22;;
65368;SDS011;51970;53.484;49.488;2023-06-10T02:57:13;9.55;;;4.90;;
65368;SDS011;51970;53.484;49.488;2023-06-10T02:59:40;11.30;;;3.75;;
65368;SDS011;51970;53.484;49.488;2023-06-10T03:02:06;10.23;;;3.90;;
65368;SDS011;51970;53.484;49.488;2023-06-10T03:04:33;8.35;;;4.15;;
65368;SDS011;51970;53.484;49.488;2023-06-10T03:07:03;10.32;;;3.72;;
65368;SDS011;51970;53.484;49.488;2023-06-10T03:09:37;11.10;;;3.00;;
65368;SDS011;51970;53.484;49.488;2023-06-10T03:12:11;14.80;;;4.05;;
65368;SDS011;51970;53.484;49.488;2023-06-10T03:14:47;12.60;;;4.65;;
65368;SDS011;51970;53.484;49.488;2023-06-10T03:17:14;11.77;;;4.10;;
65368;SDS011;51970;53.484;49.488;2023-06-10T03:19:41;11.93;;;4.85;;
65368;SDS011;51970;53.484;49.488;2023-06-10T03:22:11;10.00;;;3.83;;
65368;SDS011;51970;53.484;49.488;2023-06-10T03:24:57;11.95;;;3.20;;
65368;SDS011;51970;53.484;49.488;2023-06-10T03:27:28;9.32;;;3.53;;
65368;SDS011;51970;53.484;49.488;2023-06-10T03:29:58;8.95;;;3.25;;
65368;SDS011;51970;53.484;49.488;2023-06-10T03:32:27;8.20;;;3.63;;
65368;SDS011;51970;53.484;49.488;2023-06-10T03:35:04;8.85;;;3.97;;
65368;SDS011;51970;53.484;49.488;2023-06-10T03:37:34;10.85;;;3.47;;
65368;SDS011;51970;53.484;49.488;2023-06-10T03:40:02;8.27;;;3.13;;
65368;SDS011;51970;53.484;49.488;2023-06-10T03:42:56;7.80;;;3.25;;
65368;SDS011;51970;53.484;49.488;2023-06-10T03:45:47;9.77;;;4.10;;
65368;SDS011;51970;53.484;49.488;2023-06-10T03:49:06;10.63;;;4.05;;
65368;SDS011;51970;53.484;49.488;2023-06-10T03:51:57;8.82;;;3.15;;
65368;SDS011;51970;53.484;49.488;2023-06-10T03:54:50;8.05;;;3.88;;
65368;SDS011;51970;53.484;49.488;2023-06-10T03:57:59;9.20;;;4.25;;
65368;SDS011;51970;53.484;49.488;2023-06-10T04:00:29;9.13;;;4.68;;
65368;SDS011;51970;53.484;49.488;2023-06-10T04:03:21;11.10;;;3.25;;
65368;SDS011;51970;53.484;49.488;2023-06-10T04:06:36;9.35;;;4.65;;
65368;SDS011;51970;53.484;49.488;2023-06-10T04:09:33;12.05;;;3.83;;
65368;SDS011;51970;53.484;49.488;2023-06-10T04:12:22;12.93;;;5.80;;
65368;SDS011;51970;53.484;49.488;2023-06-10T04:14:54;9.65;;;3.92;;
65368;SDS011;51970;53.484;49.488;2023-06-10T04:17:41;12.27;;;4.30;;
65368;SDS011;51970;53.484;49.488;2023-06-10T04:20:46;12.57;;;4.50;;
65368;SDS011;51970;53.484;49.488;2023-06-10T04:23:37;7.88;;;4.80;;
65368;SDS011;51970;53.484;49.488;2023-06-10T04:26:24;9.73;;;3.72;;
65368;SDS011;51970;53.484;49.488;2023-06-10T04:28:51;8.93;;;4.03;;
65368;SDS011;51970;53.484;49.488;2023-06-10T04:31:23;14.02;;;3.92;;
65368;SDS011;51970;53.484;49.488;2023-06-10T04:34:05;11.43;;;4.25;;
65368;SDS011;51970;53.484;49.488;2023-06-10T04:36:42;9.10;;;4.30;;
65368;SDS011;51970;53.484;49.488;2023-06-10T04:39:48;11.88;;;4.45;;
65368;SDS011;51970;53.484;49.488;2023-06-10T04:43:26;8.40;;;3.83;;
65368;SDS011;51970;53.484;49.488;2023-06-10T04:45:57;9.18;;;4.43;;
65368;SDS011;51970;53.484;49.488;2023-06-10T04:49:07;9.20;;;3.97;;
65368;SDS011;51970;53.484;49.488;2023-06-10T04:51:59;9.27;;;4.00;;
65368;SDS011;51970;53.484;49.488;2023-06-10T04:55:02;11.80;;;4.57;;
65368;SDS011;51970;53.484;49.488;2023-06-10T04:58:23;14.25;;;4.90;;
65368;SDS011;51970;53.484;49.488;2023-06-10T05:01:14;16.02;;;4.97;;
65368;SDS011;51970;53.484;49.488;2023-06-10T05:04:03;13.65;;;3.92;;
65368;SDS011;51970;53.484;49.488;2023-06-10T05:06:32;8.85;;;4.25;;
65368;SDS011;51970;53.484;49.488;2023-06-10T05:09:55;10.73;;;4.80;;
65368;SDS011;51970;53.484;49.488;2023-06-10T05:12:53;10.80;;;3.42;;
65368;SDS011;51970;53.484;49.488;2023-06-10T05:15:36;8.77;;;4.05;;
65368;SDS011;51970;53.484;49.488;2023-06-10T05:18:05;9.10;;;4.57;;
65368;SDS011;51970;53.484;49.488;2023-06-10T05:20:43;8.05;;;4.00;;
65368;SDS011;51970;53.484;49.488;2023-06-10T05:23:59;7.95;;;4.03;;
65368;SDS011;51970;53.484;49.488;2023-06-10T05:27:03;10.45;;;4.82;;
65368;SDS011;51970;53.484;49.488;2023-06-10T05:29:50;8.70;;;3.97;;
65368;SDS011;51970;53.484;49.488;2023-06-10T05:32:36;10.48;;;4.43;;
65368;SDS011;51970;53.484;49.488;2023-06-10T05:35:31;11.77;;;4.22;;
65368;SDS011;51970;53.484;49.488;2023-06-10T05:38:14;12.10;;;4.10;;
65368;SDS011;51970;53.484;49.488;2023-06-10T05:40:53;8.43;;;4.53;;
65368;SDS011;51970;53.484;49.488;2023-06-10T05:43:24;7.35;;;4.00;;
65368;SDS011;51970;53.484;49.488;2023-06-10T05:47:03;12.18;;;4.22;;
65368;SDS011;51970;53.484;49.488;2023-06-10T05:49:59;8.75;;;4.40;;
65368;SDS011;51970;53.484;49.488;2023-06-10T05:52:38;10.38;;;4.38;;
65368;SDS011;51970;53.484;49.488;2023-06-10T05:55:46;8.30;;;3.65;;
65368;SDS011;51970;53.484;49.488;2023-06-10T05:59:11;8.43;;;3.33;;
65368;SDS011;51970;53.484;49.488;2023-06-10T06:02:05;7.97;;;4.45;;
65368;SDS011;51970;53.484;49.488;2023-06-10T06:05:36;9.45;;;4.97;;
65368;SDS011;51970;53.484;49.488;2023-06-10T06:08:36;8.70;;;3.78;;
65368;SDS011;51970;53.484;49.488;2023-06-10T06:11:31;11.02;;;3.22;;
65368;SDS011;51970;53.484;49.488;2023-06-10T06:14:21;12.77;;;3.78;;
65368;SDS011;51970;53.484;49.488;2023-06-10T06:17:19;9.15;;;3.80;;
65368;SDS011;51970;53.484;49.488;2023-06-10T06:20:08;10.32;;;4.00;;
65368;SDS011;51970;53.484;49.488;2023-06-10T06:23:34;10.18;;;3.17;;
65368;SDS011;51970;53.484;49.488;2023-06-10T06:26:07;13.85;;;3.85;;
65368;SDS011;51970;53.484;49.488;2023-06-10T06:29:21;10.40;;;3.65;;
65368;SDS011;51970;53.484;49.488;2023-06-10T06:31:50;15.18;;;4.05;;
65368;SDS011;51970;53.484;49.488;2023-06-10T06:34:39;9.27;;;2.95;;
65368;SDS011;51970;53.484;49.488;2023-06-10T06:37:49;7.60;;;3.10;;
65368;SDS011;51970;53.484;49.488;2023-06-10T06:41:02;10.38;;;3.40;;
65368;SDS011;51970;53.484;49.488;2023-06-10T06:44:23;6.28;;;2.85;;
65368;SDS011;51970;53.484;49.488;2023-06-10T06:47:38;7.03;;;3.13;;
65368;SDS011;51970;53.484;49.488;2023-06-10T06:51:04;14.75;;;3.75;;
65368;SDS011;51970;53.484;49.488;2023-06-10T06:54:21;8.23;;;3.03;;
65368;SDS011;51970;53.484;49.488;2023-06-10T06:57:39;8.02;;;3.03;;
65368;SDS011;51970;53.484;49.488;2023-06-10T07:01:36;7.13;;;3.20;;
65368;SDS011;51970;53.484;49.488;2023-06-10T07:04:25;8.88;;;3.33;;
65368;SDS011;51970;53.484;49.488;2023-06-10T07:10:28;9.75;;;3.63;;
65368;SDS011;51970;53.484;49.488;2023-06-10T07:13:17;8.68;;;3.40;;
65368;SDS011;51970;53.484;49.488;2023-06-10T07:15:50;6.35;;;2.55;;
65368;SDS011;51970;53.484;49.488;2023-06-10T07:18:24;9.23;;;4.15;;
65368;SDS011;51970;53.484;49.488;2023-06-10T07:21:22;7.15;;;2.90;;
65368;SDS011;51970;53.484;49.488;2023-06-10T07:23:56;8.85;;;3.28;;
65368;SDS011;51970;53.484;49.488;2023-06-10T07:26:43;10.38;;;3.63;;
65368;SDS011;51970;53.484;49.488;2023-06-10T07:30:27;8.63;;;3.70;;
65368;SDS011;51970;53.484;49.488;2023-06-10T07:34:18;8.20;;;3.10;;
65368;SDS011;51970;53.484;49.488;2023-06-10T07:37:28;8.52;;;3.35;;
65368;SDS011;51970;53.484;49.488;2023-06-10T07:58:27;9.23;;;3.35;;
65368;SDS011;51970;53.484;49.488;2023-06-10T08:01:24;8.23;;;3.83;;
65368;SDS011;51970;53.484;49.488;2023-06-10T08:04:25;7.13;;;3.38;;
65368;SDS011;51970;53.484;49.488;2023-06-10T08:07:46;11.65;;;4.50;;
65368;SDS011;51970;53.484;49.488;2023-06-10T08:11:11;7.55;;;3.92;;
65368;SDS011;51970;53.484;49.488;2023-06-10T08:14:33;8.70;;;3.60;;
65368;SDS011;51970;53.484;49.488;2023-06-10T08:17:30;8.18;;;4.03;;
65368;SDS011;51970;53.484;49.488;2023-06-10T08:21:06;8.73;;;3.80;;
65368;SDS011;51970;53.484;49.488;2023-06-10T08:24:00;7.47;;;3.80;;
65368;SDS011;51970;53.484;49.488;2023-06-10T08:27:37;12.20;;;4.40;;
65368;SDS011;51970;53.484;49.488;2023-06-10T08:48:42;12.02;;;4.03;;
65368;SDS011;51970;53.484;49.488;2023-06-10T08:52:11;8.07;;;3.92;;
65368;SDS011;51970;53.484;49.488;2023-06-10T08:55:33;10.55;;;3.55;;
65368;SDS011;51970;53.484;49.488;2023-06-10T09:17:21;9.55;;;4.70;;
65368;SDS011;51970;53.484;49.488;2023-06-10T11:54:10;16.42;;;6.88;;
65368;SDS011;51970;53.484;49.488;2023-06-10T12:22:47;11.18;;;5.57;;
65368;SDS011;51970;53.484;49.488;2023-06-10T12:26:43;15.32;;;7.00;;
65368;SDS011;51970;53.484;49.488;2023-06-10T12:38:14;12.15;;;6.50;;
65368;SDS011;51970;53.484;49.488;2023-06-10T12:41:37;10.65;;;5.93;;
65368;SDS011;51970;53.484;49.488;2023-06-10T12:44:11;9.93;;;5.90;;
65368;SDS011;51970;53.484;49.488;2023-06-10T12:47:42;12.05;;;6.93;;
65368;SDS011;51970;53.484;49.488;2023-06-10T12:50:57;15.32;;;6.15;;
65368;SDS011;51970;53.484;49.488;2023-06-10T12:54:23;12.98;;;7.07;;
65368;SDS011;51970;53.484;49.488;2023-06-10T12:57:03;11.88;;;6.93;;
65368;SDS011;51970;53.484;49.488;2023-06-10T12:59:45;12.77;;;7.22;;
65368;SDS011;51970;53.484;49.488;2023-06-10T13:06:17;11.68;;;7.25;;
65368;SDS011;51970;53.484;49.488;2023-06-10T13:30:10;18.52;;;8.98;;
65368;SDS011;51970;53.484;49.488;2023-06-10T13:33:59;19.15;;;10.30;;
65368;SDS011;51970;53.484;49.488;2023-06-10T13:37:48;18.83;;;8.73;;
65368;SDS011;51970;53.484;49.488;2023-06-10T13:40:37;17.10;;;6.65;;
65368;SDS011;51970;53.484;49.488;2023-06-10T13:43:13;11.13;;;6.60;;
65368;SDS011;51970;53.484;49.488;2023-06-10T13:46:51;13.48;;;6.40;;
65368;SDS011;51970;53.484;49.488;2023-06-10T13:50:13;17.38;;;8.27;;
65368;SDS011;51970;53.484;49.488;2023-06-10T13:52:57;18.15;;;8.68;;
65368;SDS011;51970;53.484;49.488;2023-06-10T13:57:03;16.45;;;9.18;;
65368;SDS011;51970;53.484;49.488;2023-06-10T14:00:45;16.88;;;9.93;;
65368;SDS011;51970;53.484;49.488;2023-06-10T14:04:23;18.00;;;10.80;;
65368;SDS011;51970;53.484;49.488;2023-06-10T14:07:59;19.65;;;12.27;;
65368;SDS011;51970;53.484;49.488;2023-06-10T14:12:03;16.35;;;8.15;;
65368;SDS011;51970;53.484;49.488;2023-06-10T14:15:57;16.05;;;7.57;;
65368;SDS011;51970;53.484;49.488;2023-06-10T14:18:57;13.55;;;6.50;;
65368;SDS011;51970;53.484;49.488;2023-06-10T14:21:42;14.55;;;7.38;;
65368;SDS011;51970;53.484;49.488;2023-06-10T14:24:30;17.13;;;7.55;;
65368;SDS011;51970;53.484;49.488;2023-06-10T14:27:01;22.35;;;7.85;;
65368;SDS011;51970;53.484;49.488;2023-06-10T14:30:00;12.60;;;5.68;;
65368;SDS011;51970;53.484;49.488;2023-06-10T14:33:38;12.48;;;6.30;;
65368;SDS011;51970;53.484;49.488;2023-06-10T14:37:14;12.23;;;4.88;;
65368;SDS011;51970;53.484;49.488;2023-06-10T14:40:43;9.15;;;4.38;;
65368;SDS011;51970;53.484;49.488;2023-06-10T14:43:52;9.77;;;4.50;;
65368;SDS011;51970;53.484;49.488;2023-06-10T14:46:20;10.52;;;4.43;;
65368;SDS011;51970;53.484;49.488;2023-06-10T14:49:24;9.10;;;4.57;;
65368;SDS011;51970;53.484;49.488;2023-06-10T14:52:30;14.82;;;5.40;;
65368;SDS011;51970;53.484;49.488;2023-06-10T14:55:13;11.02;;;5.40;;
65368;SDS011;51970;53.484;49.488;2023-06-10T14:58:15;12.23;;;5.25;;
65368;SDS011;51970;53.484;49.488;2023-06-10T15:01:06;9.50;;;4.50;;
65368;SDS011;51970;53.484;49.488;2023-06-10T15:04:17;10.00;;;5.22;;
65368;SDS011;51970;53.484;49.488;2023-06-10T15:07:25;11.25;;;5.05;;
65368;SDS011;51970;53.484;49.488;2023-06-10T15:10:24;11.15;;;5.38;;
65368;SDS011;51970;53.484;49.488;2023-06-10T15:12:57;11.82;;;4.80;;
65368;SDS011;51970;53.484;49.488;2023-06-10T15:16:09;12.02;;;5.05;;
65368;SDS011;51970;53.484;49.488;2023-06-10T15:20:14;9.48;;;4.75;;
65368;SDS011;51970;53.484;49.488;2023-06-10T15:23:05;11.05;;;4.65;;
65368;SDS011;51970;53.484;49.488;2023-06-10T15:25:44;8.63;;;4.25;;
65368;SDS011;51970;53.484;49.488;2023-06-10T15:35:22;10.23;;;4.20;;
65368;SDS011;51970;53.484;49.488;2023-06-10T15:38:15;12.35;;;4.78;;
65368;SDS011;51970;53.484;49.488;2023-06-10T15:40:45;14.80;;;5.80;;
65368;SDS011;51970;53.484;49.488;2023-06-10T15:43:57;7.47;;;4.22;;
65368;SDS011;51970;53.484;49.488;2023-06-10T15:46:27;10.60;;;4.95;;
65368;SDS011;51970;53.484;49.488;2023-06-10T15:51:28;9.27;;;4.50;;
65368;SDS011;51970;53.484;49.488;2023-06-10T15:54:16;9.43;;;4.53;;
65368;SDS011;51970;53.484;49.488;2023-06-10T15:56:44;11.10;;;5.70;;
65368;SDS011;51970;53.484;49.488;2023-06-10T15:59:22;15.73;;;5.13;;
65368;SDS011;51970;53.484;49.488;2023-06-10T16:02:07;12.25;;;6.70;;
65368;SDS011;51970;53.484;49.488;2023-06-10T16:05:17;11.48;;;5.30;;
65368;SDS011;51970;53.484;49.488;2023-06-10T16:07:47;10.23;;;5.43;;
65368;SDS011;51970;53.484;49.488;2023-06-10T16:11:07;14.73;;;5.57;;
65368;SDS011;51970;53.484;49.488;2023-06-10T16:13:53;9.05;;;4.85;;
65368;SDS011;51970;53.484;49.488;2023-06-10T16:16:29;9.82;;;4.45;;
65368;SDS011;51970;53.484;49.488;2023-06-10T16:18:58;10.60;;;4.78;;
65368;SDS011;51970;53.484;49.488;2023-06-10T16:21:44;9.77;;;4.10;;
65368;SDS011;51970;53.484;49.488;2023-06-10T16:24:19;8.30;;;3.70;;
65368;SDS011;51970;53.484;49.488;2023-06-10T16:26:45;13.52;;;3.80;;
65368;SDS011;51970;53.484;49.488;2023-06-10T16:29:15;11.95;;;3.67;;
65368;SDS011;51970;53.484;49.488;2023-06-10T16:31:42;11.00;;;4.00;;
65368;SDS011;51970;53.484;49.488;2023-06-10T16:34:10;7.93;;;3.78;;
65368;SDS011;51970;53.484;49.488;2023-06-10T16:36:40;10.18;;;3.60;;
65368;SDS011;51970;53.484;49.488;2023-06-10T16:39:51;7.72;;;3.63;;
65368;SDS011;51970;53.484;49.488;2023-06-10T16:42:20;7.22;;;3.35;;
65368;SDS011;51970;53.484;49.488;2023-06-10T16:44:57;9.70;;;4.18;;
65368;SDS011;51970;53.484;49.488;2023-06-10T16:50:48;8.98;;;3.33;;
65368;SDS011;51970;53.484;49.488;2023-06-10T16:53:19;9.45;;;3.67;;
65368;SDS011;51970;53.484;49.488;2023-06-10T16:56:06;6.47;;;3.05;;
65368;SDS011;51970;53.484;49.488;2023-06-10T16:58:35;10.60;;;3.85;;
65368;SDS011;51970;53.484;49.488;2023-06-10T17:01:04;6.72;;;3.10;;
65368;SDS011;51970;53.484;49.488;2023-06-10T17:03:42;6.00;;;2.97;;
65368;SDS011;51970;53.484;49.488;2023-06-10T17:06:14;6.20;;;2.67;;
65368;SDS011;51970;53.484;49.488;2023-06-10T17:09:10;7.65;;;2.72;;
65368;SDS011;51970;53.484;49.488;2023-06-10T17:12:30;8.45;;;3.25;;
65368;SDS011;51970;53.484;49.488;2023-06-10T17:15:02;8.55;;;3.80;;
65368;SDS011;51970;53.484;49.488;2023-06-10T17:17:57;9.45;;;4.30;;
65368;SDS011;51970;53.484;49.488;2023-06-10T17:24:23;6.68;;;3.60;;
65368;SDS011;51970;53.484;49.488;2023-06-10T17:26:56;7.03;;;3.65;;
65368;SDS011;51970;53.484;49.488;2023-06-10T17:29:22;7.15;;;4.35;;
65368;SDS011;51970;53.484;49.488;2023-06-10T17:31:57;7.55;;;3.58;;
65368;SDS011;51970;53.484;49.488;2023-06-10T17:34:27;11.15;;;4.07;;
65368;SDS011;51970;53.484;49.488;2023-06-10T17:37:02;9.05;;;4.32;;
65368;SDS011;51970;53.484;49.488;2023-06-10T17:40:31;10.68;;;4.50;;
65368;SDS011;51970;53.484;49.488;2023-06-10T17:43:28;12.10;;;4.78;;
65368;SDS011;51970;53.484;49.488;2023-06-10T17:46:00;7.15;;;3.75;;
65368;SDS011;51970;53.484;49.488;2023-06-10T17:48:30;11.88;;;3.88;;
65368;SDS011;51970;53.484;49.488;2023-06-10T17:51:31;8.32;;;3.67;;
65368;SDS011;51970;53.484;49.488;2023-06-10T17:54:32;10.02;;;4.18;;
65368;SDS011;51970;53.484;49.488;2023-06-10T17:57:46;9.02;;;3.70;;
65368;SDS011;51970;53.484;49.488;2023-06-10T18:00:20;8.73;;;4.47;;
65368;SDS011;51970;53.484;49.488;2023-06-10T18:03:06;7.63;;;3.75;;
65368;SDS011;51970;53.484;49.488;2023-06-10T18:05:37;7.38;;;3.53;;
65368;SDS011;51970;53.484;49.488;2023-06-10T18:08:13;9.18;;;3.75;;
65368;SDS011;51970;53.484;49.488;2023-06-10T18:10:58;10.18;;;5.47;;
65368;SDS011;51970;53.484;49.488;2023-06-10T18:13:24;10.23;;;4.30;;
65368;SDS011;51970;53.484;49.488;2023-06-10T18:16:14;9.25;;;4.53;;
65368;SDS011;51970;53.484;49.488;2023-06-10T18:18:40;9.68;;;3.40;;
65368;SDS011;51970;53.484;49.488;2023-06-10T18:21:12;7.78;;;3.72;;
65368;SDS011;51970;53.484;49.488;2023-06-10T18:23:47;11.75;;;4.32;;
65368;SDS011;51970;53.484;49.488;2023-06-10T18:26:13;8.60;;;4.63;;
65368;SDS011;51970;53.484;49.488;2023-06-10T18:29:05;7.43;;;4.35;;
65368;SDS011;51970;53.484;49.488;2023-06-10T18:32:09;8.73;;;4.65;;
65368;SDS011;51970;53.484;49.488;2023-06-10T18:35:05;7.97;;;4.28;;
65368;SDS011;51970;53.484;49.488;2023-06-10T18:37:48;8.48;;;4.43;;
65368;SDS011;51970;53.484;49.488;2023-06-10T18:42:47;11.38;;;4.72;;
65368;SDS011;51970;53.484;49.488;2023-06-10T18:45:20;8.60;;;4.85;;
65368;SDS011;51970;53.484;49.488;2023-06-10T18:48:33;11.00;;;4.25;;
65368;SDS011;51970;53.484;49.488;2023-06-10T18:51:25;10.82;;;3.72;;
65368;SDS011;51970;53.484;49.488;2023-06-10T18:54:34;9.15;;;3.47;;
65368;SDS011;51970;53.484;49.488;2023-06-10T18:57:09;7.30;;;3.58;;
65368;SDS011;51970;53.484;49.488;2023-06-10T18:59:42;6.82;;;4.05;;
65368;SDS011;51970;53.484;49.488;2023-06-10T19:02:24;12.52;;;3.88;;
65368;SDS011;51970;53.484;49.488;2023-06-10T19:04:56;9.18;;;4.22;;
65368;SDS011;51970;53.484;49.488;2023-06-10T19:10:11;10.15;;;3.00;;
65368;SDS011;51970;53.484;49.488;2023-06-10T19:13:05;7.25;;;3.40;;
65368;SDS011;51970;53.484;49.488;2023-06-10T19:15:44;7.32;;;3.67;;
65368;SDS011;51970;53.484;49.488;2023-06-10T19:20:43;9.13;;;3.20;;
65368;SDS011;51970;53.484;49.488;2023-06-10T19:23:17;7.32;;;3.38;;
65368;SDS011;51970;53.484;49.488;2023-06-10T19:41:02;9.38;;;2.95;;
65368;SDS011;51970;53.484;49.488;2023-06-10T19:43:33;10.73;;;3.25;;
65368;SDS011;51970;53.484;49.488;2023-06-10T19:46:16;6.22;;;3.38;;
65368;SDS011;51970;53.484;49.488;2023-06-10T19:48:58;6.60;;;2.90;;
65368;SDS011;51970;53.484;49.488;2023-06-10T19:51:26;6.50;;;3.15;;
65368;SDS011;51970;53.484;49.488;2023-06-10T19:54:03;8.25;;;2.53;;
65368;SDS011;51970;53.484;49.488;2023-06-10T19:59:07;8.35;;;2.92;;
65368;SDS011;51970;53.484;49.488;2023-06-10T20:01:39;11.02;;;3.10;;
65368;SDS011;51970;53.484;49.488;2023-06-10T20:04:08;5.95;;;2.78;;
65368;SDS011;51970;53.484;49.488;2023-06-10T20:06:38;7.20;;;2.88;;
65368;SDS011;51970;53.484;49.488;2023-06-10T20:09:05;7.88;;;2.72;;
65368;SDS011;51970;53.484;49.488;2023-06-10T20:11:33;5.60;;;2.30;;
65368;SDS011;51970;53.484;49.488;2023-06-10T20:14:02;9.85;;;2.28;;
65368;SDS011;51970;53.484;49.488;2023-06-10T20:16:29;6.43;;;2.60;;
65368;SDS011;51970;53.484;49.488;2023-06-10T20:18:56;4.55;;;2.30;;
65368;SDS011;51970;53.484;49.488;2023-06-10T20:21:24;8.60;;;1.88;;
65368;SDS011;51970;53.484;49.488;2023-06-10T20:23:52;4.93;;;1.77;;
65368;SDS011;51970;53.484;49.488;2023-06-10T20:26:20;5.85;;;1.30;;
65368;SDS011;51970;53.484;49.488;2023-06-10T20:28:50;6.50;;;1.60;;
65368;SDS011;51970;53.484;49.488;2023-06-10T20:31:16;6.63;;;2.20;;
65368;SDS011;51970;53.484;49.488;2023-06-10T20:33:46;6.55;;;1.70;;
65368;SDS011;51970;53.484;49.488;2023-06-10T20:36:14;6.85;;;2.28;;
65368;SDS011;51970;53.484;49.488;2023-06-10T20:38:53;7.80;;;1.98;;
65368;SDS011;51970;53.484;49.488;2023-06-10T20:41:40;5.50;;;1.75;;
65368;SDS011;51970;53.484;49.488;2023-06-10T20:44:21;4.32;;;2.17;;
65368;SDS011;51970;53.484;49.488;2023-06-10T20:46:52;3.85;;;1.40;;
65368;SDS011;51970;53.484;49.488;2023-06-10T20:49:20;5.25;;;2.05;;
65368;SDS011;51970;53.484;49.488;2023-06-10T20:51:48;5.07;;;2.20;;
65368;SDS011;51970;53.484;49.488;2023-06-10T20:54:22;9.02;;;2.17;;
65368;SDS011;51970;53.484;49.488;2023-06-10T20:56:52;5.03;;;1.23;;
65368;SDS011;51970;53.484;49.488;2023-06-10T20:59:21;6.25;;;2.55;;
65368;SDS011;51970;53.484;49.488;2023-06-10T21:01:51;9.57;;;1.65;;
65368;SDS011;51970;53.484;49.488;2023-06-10T21:04:22;5.10;;;1.77;;
65368;SDS011;51970;53.484;49.488;2023-06-10T21:07:03;4.53;;;2.55;;
65368;SDS011;51970;53.484;49.488;2023-06-10T21:09:31;10.15;;;1.67;;
65368;SDS011;51970;53.484;49.488;2023-06-10T21:11:59;4.72;;;1.13;;
65368;SDS011;51970;53.484;49.488;2023-06-10T21:14:29;4.07;;;1.88;;
65368;SDS011;51970;53.484;49.488;2023-06-10T21:16:58;9.10;;;2.13;;
65368;SDS011;51970;53.484;49.488;2023-06-10T21:19:25;3.20;;;1.20;;
65368;SDS011;51970;53.484;49.488;2023-06-10T21:21:51;6.72;;;1.70;;
65368;SDS011;51970;53.484;49.488;2023-06-10T21:24:17;7.65;;;2.47;;
65368;SDS011;51970;53.484;49.488;2023-06-10T21:26:44;3.30;;;1.48;;
65368;SDS011;51970;53.484;49.488;2023-06-10T21:29:11;3.95;;;1.27;;
65368;SDS011;51970;53.484;49.488;2023-06-10T21:31:38;7.43;;;2.67;;
65368;SDS011;51970;53.484;49.488;2023-06-10T21:34:05;4.40;;;2.33;;
65368;SDS011;51970;53.484;49.488;2023-06-10T21:36:34;5.50;;;1.55;;